Time;durP1;ratioP1;P1;durP2;ratioP2;P2;SDS_P1;SDS_P2;PMS_P1;PMS_P2;Temp;Humidity;BMP_temperature;BMP_pressure;BME280_temperature;BME280_humidity;BME280_pressure;Samples;Min_cycle;Max_cycle;Signal;HPM_P1;HPM_P2
2022/09/20 00:00:38;;;;;;;9.57;2.20;;;;;;;10.97;87.11;102142.94;4991132;28;20029;-84
2022/09/20 00:03:22;;;;;;;9.40;2.20;;;;;;;10.89;87.00;102135.59;5005682;28;20030;-84
2022/09/20 00:05:59;;;;;;;8.25;2.10;;;;;;;10.90;86.59;102136.47;4991005;28;20120;-84
2022/09/20 00:08:47;;;;;;;10.80;2.13;;;;;;;10.97;87.30;102137.75;4985877;28;20084;-84
2022/09/20 00:11:22;;;;;;;;;;;;;;;11.44;86.83;102193.66;4974080;28;20466;-83
2022/09/20 00:14:12;;;;;;;8.40;2.28;;;;;;;10.96;87.31;102141.28;4988743;28;20289;-84
2022/09/20 00:16:50;;;;;;;10.00;2.05;;;;;;;11.03;86.53;102152.94;4976416;28;20028;-84
2022/09/20 00:19:58;;;;;;;11.37;2.63;;;;;;;11.26;86.99;102197.41;4988535;28;20034;-83
2022/09/20 00:22:33;;;;;;;;;;;;;;;11.38;87.26;102194.88;4974913;28;20282;-84
2022/09/20 00:28:09;;;;;;;9.13;1.95;;;;;;;11.24;88.02;102188.84;4975283;28;20038;-84
2022/09/20 00:30:47;;;;;;;11.90;2.13;;;;;;;10.85;88.53;102138.50;4979500;28;20491;-84
2022/09/20 00:33:22;;;;;;;9.45;2.13;;;;;;;10.68;88.46;102143.91;4974745;28;20463;-84
2022/09/20 00:35:57;;;;;;;7.07;1.98;;;;;;;10.60;88.91;102139.97;4989429;28;20562;-83
2022/09/20 00:38:33;;;;;;;7.82;2.35;;;;;;;10.61;89.54;102157.25;4989314;28;20048;-84
2022/09/20 00:41:12;;;;;;;8.00;2.08;;;;;;;10.59;89.05;102148.69;4988015;28;20034;-84
2022/09/20 00:43:42;;;;;;;8.57;2.13;;;;;;;10.86;89.32;102202.44;4988294;28;20102;-84
2022/09/20 00:46:39;;;;;;;8.15;2.40;;;;;;;10.67;90.18;102155.16;4985315;28;20023;-84
2022/09/20 00:49:25;;;;;;;7.97;2.72;;;;;;;10.59;90.24;102146.09;4967309;28;20395;-84
2022/09/20 00:52:32;;;;;;;;;;;;;;;;;;;;;
2022/09/20 00:55:03;;;;;;;10.88;2.90;;;;;;;10.63;90.13;102159.72;4974695;28;20476;-82
2022/09/20 00:57:46;;;;;;;;;;;;;;;;;;;;;
2022/09/20 01:00:31;;;;;;;10.13;3.10;;;;;;;10.44;89.75;102149.63;4976608;28;20045;-84
2022/09/20 01:03:21;;;;;;;9.95;3.00;;;;;;;10.52;90.45;102157.78;4972882;28;20030;-84
2022/09/20 01:06:23;;;;;;;10.35;2.97;;;;;;;10.67;91.00;102165.56;4981412;28;20076;-84
2022/09/20 01:09:01;;;;;;;9.45;3.47;;;;;;;10.69;90.18;102179.28;4980384;28;20059;-83
2022/09/20 01:11:45;;;;;;;6.07;2.33;;;;;;;10.97;89.99;102197.44;4974852;28;20033;-83
2022/09/20 01:14:21;;;;;;;8.43;3.17;;;;;;;10.72;90.60;102168.69;4979103;28;20177;-83
2022/09/20 01:16:54;;;;;;;9.82;3.08;;;;;;;10.49;90.40;102142.38;4985386;28;20034;-83
2022/09/20 01:20:01;;;;;;;11.82;3.00;;;;;;;10.88;91.25;102195.41;4978922;28;20041;-84
2022/09/20 01:23:11;;;;;;;8.48;2.78;;;;;;;10.64;91.80;102161.41;4974725;28;20038;-84
2022/09/20 01:26:00;;;;;;;10.05;3.22;;;;;;;10.88;91.33;102195.41;4983019;28;20026;-84
2022/09/20 01:28:29;;;;;;;11.07;3.33;;;;;;;10.55;91.13;102157.63;5002243;28;20042;-84
2022/09/20 01:31:27;;;;;;;10.63;2.67;;;;;;;10.92;90.96;102196.88;4982583;28;20053;-83
2022/09/20 01:34:01;;;;;;;7.50;2.65;;;;;;;10.51;91.43;102145.75;4977988;28;20031;-83
2022/09/20 01:36:55;;;;;;;9.57;3.20;;;;;;;10.51;91.31;102144.91;4985767;28;20076;-83
2022/09/20 01:39:56;;;;;;;10.82;3.22;;;;;;;10.74;91.38;102174.66;4982818;28;20050;-84
2022/09/20 01:42:46;;;;;;;8.55;3.20;;;;;;;10.95;90.57;102190.66;4980527;28;20030;-84
2022/09/20 01:45:41;;;;;;;;;;;;;;;;;;;;;
2022/09/20 01:48:23;;;;;;;10.75;3.42;;;;;;;10.70;91.69;102157.59;4976950;28;20029;-83
2022/09/20 01:51:15;;;;;;;9.00;3.65;;;;;;;10.83;91.38;102187.06;4984301;28;20058;-84
2022/09/20 01:54:25;;;;;;;9.85;3.70;;;;;;;10.80;91.53;102187.25;4981247;28;20060;-83
2022/09/20 01:57:23;;;;;;;10.93;3.70;;;;;;;10.68;91.34;102181.06;4980550;28;20058;-83
2022/09/20 02:00:17;;;;;;;10.48;3.60;;;;;;;10.65;91.86;102189.00;4982004;28;20040;-84
2022/09/20 02:03:01;;;;;;;9.70;4.07;;;;;;;10.68;92.28;102190.59;4980913;28;20034;-84
2022/09/20 02:06:07;;;;;;;10.80;3.88;;;;;;;10.43;91.86;102136.75;4978302;28;20034;-83
2022/09/20 02:08:58;;;;;;;;;;;;;;;;;;;;;
2022/09/20 02:11:49;;;;;;;9.43;3.30;;;;;;;10.71;92.17;102161.84;4984819;28;20042;-83
2022/09/20 02:14:53;;;;;;;;;;;;;;;;;;;;;
2022/09/20 02:17:59;;;;;;;9.60;3.90;;;;;;;10.77;92.93;102192.63;4982796;28;20034;-84
2022/09/20 02:20:52;;;;;;;8.50;3.55;;;;;;;10.43;92.37;102142.75;4982578;28;20026;-84
2022/09/20 02:23:44;;;;;;;8.35;3.17;;;;;;;10.41;92.45;102138.59;4919047;29;20040;-83
2022/09/20 02:27:11;;;;;;;9.38;3.45;;;;;;;10.54;92.57;102145.53;4904824;29;20138;-84
2022/09/20 02:30:18;;;;;;;13.93;4.32;;;;;;;10.61;92.82;102152.03;4847549;29;20104;-84
2022/09/20 02:33:09;;;;;;;9.85;4.38;;;;;;;10.72;92.45;102184.28;4884184;29;20032;-84
2022/09/20 02:35:42;;;;;;;10.63;4.97;;;;;;;10.52;93.92;102151.75;4871195;29;20133;-84
2022/09/20 02:38:40;;;;;;;9.60;4.20;;;;;;;10.78;94.11;102184.75;4888215;29;20053;-84
2022/09/20 02:41:33;;;;;;;6.83;3.17;;;;;;;10.77;93.60;102182.25;4884279;29;20071;-83
2022/09/20 02:44:47;;;;;;;12.30;4.60;;;;;;;10.64;93.43;102172.59;4883538;29;20044;-83
2022/09/20 02:47:30;;;;;;;10.05;4.65;;;;;;;10.73;93.48;102185.97;4885293;29;20044;-83
2022/09/20 02:50:14;;;;;;;9.88;3.67;;;;;;;10.44;93.34;102144.44;4884114;29;20032;-84
2022/09/20 02:53:14;;;;;;;9.65;3.85;;;;;;;10.43;92.89;102147.94;4859399;29;20095;-83
2022/09/20 02:55:52;;;;;;;;;;;;;;;;;;;;;
2022/09/20 02:58:36;;;;;;;;;;;;;;;10.75;92.69;102163.34;4883880;29;20554;-84
2022/09/20 03:01:10;;;;;;;10.07;3.17;;;;;;;10.68;92.98;102180.22;4915559;29;19921;-83
2022/09/20 03:04:08;;;;;;;10.98;3.13;;;;;;;10.51;91.83;102140.56;4921775;28;20047;-83
2022/09/20 03:06:54;;;;;;;8.70;2.47;;;;;;;10.76;91.94;102181.41;4960567;28;20085;-83
2022/09/20 03:09:36;;;;;;;9.82;3.10;;;;;;;10.68;92.30;102178.44;4984184;28;20050;-83
2022/09/20 03:12:23;;;;;;;;;;;;;;;;;;;;;
2022/09/20 03:15:34;;;;;;;8.90;2.80;;;;;;;10.70;92.98;102180.94;4987785;28;20026;-84
2022/09/20 03:18:10;;;;;;;11.07;3.03;;;;;;;10.47;92.44;102146.00;4985844;28;20027;-84
2022/09/20 03:21:27;;;;;;;;;;;;;;;;;;;;;
2022/09/20 03:24:16;;;;;;;7.38;2.55;;;;;;;10.64;92.60;102187.34;4977578;28;20031;-84
2022/09/20 03:27:02;;;;;;;8.68;2.90;;;;;;;10.67;92.76;102191.50;4987024;28;20038;-83
2022/09/20 03:30:03;;;;;;;8.55;3.00;;;;;;;10.60;94.08;102176.31;4984180;28;20037;-83
2022/09/20 03:33:15;;;;;;;;;;;;;;;;;;;;;
2022/09/20 03:36:07;;;;;;;8.60;2.70;;;;;;;10.68;93.54;102182.81;4979416;28;20509;-84
2022/09/20 03:38:54;;;;;;;9.70;3.42;;;;;;;10.72;94.04;102192.88;4982593;28;20026;-83
2022/09/20 03:41:52;;;;;;;7.28;2.70;;;;;;;10.76;93.93;102190.97;4989806;28;20034;-84
2022/09/20 03:47:45;;;;;;;9.95;3.17;;;;;;;10.80;92.76;102190.69;4978239;28;20085;-84
2022/09/20 03:50:19;;;;;;;12.68;2.95;;;;;;;10.73;92.50;102186.81;4971934;28;20026;-84
2022/09/20 03:53:33;;;;;;;8.75;2.70;;;;;;;10.73;93.35;102185.97;4980594;28;20077;-84
2022/09/20 03:56:34;;;;;;;7.28;2.50;;;;;;;10.72;93.57;102194.66;4979275;28;20042;-84
2022/09/20 03:59:20;;;;;;;7.28;2.28;;;;;;;10.68;93.18;102193.19;4981912;28;20077;-84
2022/09/20 04:02:08;;;;;;;7.60;2.60;;;;;;;10.72;93.38;102189.47;4986313;28;20065;-83
2022/09/20 04:04:45;;;;;;;9.80;2.97;;;;;;;10.61;93.17;102185.78;4977624;28;20038;-83
2022/09/20 04:07:25;;;;;;;6.60;2.20;;;;;;;10.58;93.13;102183.34;4974287;28;20029;-83
2022/09/20 04:10:09;;;;;;;7.30;2.30;;;;;;;10.63;93.61;102191.69;4986095;28;20490;-83
2022/09/20 04:13:02;;;;;;;7.72;2.83;;;;;;;10.73;92.93;102191.16;4991828;28;20022;-83
2022/09/20 04:16:00;;;;;;;6.95;2.20;;;;;;;10.65;93.42;102183.81;4973020;28;20354;-87
2022/09/20 04:18:57;;;;;;;8.77;2.50;;;;;;;10.67;93.05;102183.72;4998596;28;20039;-90
2022/09/20 04:21:39;;;;;;;7.50;2.42;;;;;;;10.62;92.33;102182.25;4986684;28;20032;-85
2022/09/20 04:24:20;;;;;;;8.90;2.55;;;;;;;10.47;93.47;102175.38;4973608;28;20034;-89
2022/09/20 04:26:55;;;;;;;7.50;2.65;;;;;;;10.45;93.54;102182.44;4992863;28;20092;-92
2022/09/20 04:29:46;;;;;;;10.65;2.50;;;;;;;10.45;93.89;102184.19;4977998;28;20029;-90
2022/09/20 04:32:41;;;;;;;6.00;2.40;;;;;;;10.51;93.50;102182.06;4976623;28;20034;-85
2022/09/20 04:38:04;;;;;;;6.30;2.20;;;;;;;10.50;93.27;102185.59;5004398;28;20125;-90
2022/09/20 04:40:50;;;;;;;8.00;2.45;;;;;;;10.50;93.26;102180.41;4984176;28;20033;-90
2022/09/20 04:43:31;;;;;;;7.68;2.65;;;;;;;10.41;93.33;102191.31;4983256;28;20066;-88
2022/09/20 04:46:15;;;;;;;6.72;2.47;;;;;;;10.45;94.18;102192.81;4989278;28;20064;-88
2022/09/20 04:49:02;;;;;;;5.72;2.00;;;;;;;10.52;93.41;102188.91;4996985;28;20034;-91
2022/09/20 04:51:50;;;;;;;7.03;2.63;;;;;;;10.40;93.89;102189.63;4992173;28;20458;-89
2022/09/20 04:54:21;;;;;;;5.72;2.22;;;;;;;10.42;93.41;102192.97;4994736;28;20049;-89
2022/09/20 04:57:12;;;;;;;7.95;2.90;;;;;;;10.22;94.33;102190.69;5006577;28;20073;-87
2022/09/20 05:00:02;;;;;;;9.32;2.30;;;;;;;10.38;93.65;102196.69;5004197;28;20037;-90
2022/09/20 05:03:01;;;;;;;7.30;2.85;;;;;;;10.23;94.09;102197.53;4991838;28;20034;-87
2022/09/20 05:05:54;;;;;;;6.15;2.22;;;;;;;10.26;94.08;102202.56;4995266;28;20034;-89
2022/09/20 05:08:26;;;;;;;8.10;3.08;;;;;;;10.16;94.60;102207.44;4988410;28;20057;-90
2022/09/20 05:11:16;;;;;;;10.50;3.40;;;;;;;10.10;94.77;102203.44;4995980;28;20513;-87
2022/09/20 05:14:23;;;;;;;6.10;2.60;;;;;;;10.08;94.26;102194.91;5002257;28;20038;-88
2022/09/20 05:16:56;;;;;;;7.20;2.80;;;;;;;10.16;94.39;102209.19;4947161;29;20042;-89
2022/09/20 05:20:01;;;;;;;7.53;3.17;;;;;;;10.18;95.02;102209.94;4949365;28;20462;-90
2022/09/20 05:23:23;;;;;;;7.70;2.85;;;;;;;10.16;94.45;102209.19;4931539;29;20028;-86
2022/09/20 05:25:51;;;;;;;7.85;3.58;;;;;;;10.00;94.45;102212.66;4901589;29;20054;-88
2022/09/20 05:28:37;;;;;;;8.93;2.83;;;;;;;10.14;94.36;102211.03;4929856;29;20023;-88
2022/09/20 05:31:21;;;;;;;8.15;3.72;;;;;;;10.05;94.21;102205.47;4938274;28;20055;-88
2022/09/20 05:33:53;;;;;;;7.75;3.75;;;;;;;9.96;94.02;102221.53;4943928;28;20031;-88
2022/09/20 05:36:47;;;;;;;8.25;3.75;;;;;;;9.95;95.01;102219.84;4945297;29;20062;-89
2022/09/20 05:39:31;;;;;;;7.88;3.30;;;;;;;9.96;94.90;102211.16;4915578;29;20447;-89
2022/09/20 05:42:08;;;;;;;5.53;2.70;;;;;;;10.02;95.25;102221.16;4930391;28;20039;-86
2022/09/20 05:45:09;;;;;;;5.97;2.95;;;;;;;10.10;94.55;102234.53;4946734;29;20047;-88
2022/09/20 05:48:06;;;;;;;8.95;3.83;;;;;;;9.94;95.33;102228.56;4889469;29;20194;-88
2022/09/20 05:50:31;;;;;;;8.05;3.47;;;;;;;10.00;95.49;102227.38;4881319;29;20036;-88
2022/09/20 05:53:02;;;;;;;9.57;4.03;;;;;;;9.92;95.59;102225.22;4893940;29;20515;-87
2022/09/20 05:55:42;;;;;;;8.65;3.53;;;;;;;10.03;95.27;102233.19;4910478;29;20136;-88
2022/09/20 05:58:33;;;;;;;9.55;3.40;;;;;;;10.13;96.18;102232.69;4915068;29;20036;-87
2022/09/20 06:01:09;;;;;;;11.73;4.25;;;;;;;10.13;96.51;102235.28;4899628;29;20027;-89
2022/09/20 06:03:57;;;;;;;8.98;4.03;;;;;;;10.14;95.85;102245.56;4899680;29;20516;-89
2022/09/20 06:06:45;;;;;;;9.75;4.20;;;;;;;10.13;96.98;102236.13;4914581;29;20054;-88
2022/09/20 06:09:35;;;;;;;9.57;3.42;;;;;;;10.29;96.11;102243.88;4899339;29;20531;-90
2022/09/20 06:12:04;;;;;;;9.18;3.83;;;;;;;10.26;96.07;102244.06;4924772;29;20074;-86
2022/09/20 06:15:01;;;;;;;10.45;4.70;;;;;;;10.33;97.27;102255.75;4905959;29;20050;-86
2022/09/20 06:17:33;;;;;;;7.78;3.38;;;;;;;10.40;96.71;102251.88;4917156;29;20055;-88
2022/09/20 06:20:07;;;;;;;9.40;4.45;;;;;;;10.37;97.01;102252.06;4896168;29;20040;-88
2022/09/20 06:22:55;;;;;;;10.40;4.00;;;;;;;10.48;96.11;102254.03;4967228;28;20034;-86
2022/09/20 06:25:29;;;;;;;7.55;2.88;;;;;;;10.49;96.16;102240.97;4975049;28;20467;-89
2022/09/20 06:28:05;;;;;;;8.70;4.00;;;;;;;10.46;95.94;102248.94;4990219;28;20053;-87
2022/09/20 06:30:39;;;;;;;9.00;4.38;;;;;;;10.49;96.51;102256.53;5002718;28;20104;-86
2022/09/20 06:33:19;;;;;;;8.48;3.17;;;;;;;10.55;96.46;102256.19;4991070;28;20504;-87
2022/09/20 06:42:09;;;;;;;10.32;4.18;;;;;;;10.47;96.25;102242.81;5001585;28;20032;-87
2022/09/20 06:44:40;;;;;;;7.35;3.42;;;;;;;10.55;96.30;102245.81;4985943;28;20065;-87
2022/09/20 06:47:08;;;;;;;10.05;4.30;;;;;;;10.58;95.81;102247.38;4988411;28;20021;-87
2022/09/20 06:49:34;;;;;;;;;;;;;;;10.74;95.25;102258.53;5000052;28;20053;-86
2022/09/20 06:52:03;;;;;;;10.23;5.25;;;;;;;10.73;95.99;102253.44;4995704;28;19917;-87
2022/09/20 06:54:28;;;;;;;9.18;3.88;;;;;;;10.77;96.45;102254.91;4996752;28;20026;-88
2022/09/20 06:56:54;;;;;;;10.73;5.32;;;;;;;10.80;96.00;102263.34;4996243;28;20033;-88
2022/09/20 06:59:20;;;;;;;11.18;5.70;;;;;;;10.85;96.48;102257.91;4996421;28;20025;-87
2022/09/20 07:01:45;;;;;;;11.43;5.80;;;;;;;10.89;95.66;102256.75;5011422;28;20056;-88
2022/09/20 07:04:11;;;;;;;13.38;5.90;;;;;;;11.00;96.30;102267.34;4995702;28;20373;-87
2022/09/20 07:06:36;;;;;;;10.50;6.50;;;;;;;10.99;96.23;102263.06;4995324;28;20045;-89
2022/09/20 07:09:03;;;;;;;10.05;5.82;;;;;;;11.03;96.02;102261.97;4996295;28;20125;-87
2022/09/20 07:11:36;;;;;;;12.98;6.00;;;;;;;11.07;95.62;102273.84;4995397;28;20073;-87
2022/09/20 07:14:02;;;;;;;11.85;5.60;;;;;;;11.15;95.46;102268.19;4996567;28;20125;-88
2022/09/20 07:16:28;;;;;;;10.80;5.30;;;;;;;11.19;94.57;102276.63;4994305;28;20120;-89
2022/09/20 07:18:53;;;;;;;10.90;5.72;;;;;;;11.23;94.46;102267.69;4996017;28;20022;-88
2022/09/20 07:21:20;;;;;;;10.30;4.25;;;;;;;11.31;94.49;102281.06;4996409;28;20342;-87
2022/09/20 07:23:47;;;;;;;10.23;4.97;;;;;;;11.28;94.47;102276.88;4996724;28;20459;-87
2022/09/20 07:26:27;;;;;;;11.68;6.15;;;;;;;11.32;94.16;102278.38;4996894;28;20046;-88
2022/09/20 07:28:54;;;;;;;11.02;5.53;;;;;;;11.35;94.50;102277.34;5011971;28;20029;-87
2022/09/20 07:31:25;;;;;;;10.85;5.53;;;;;;;11.38;94.75;102277.16;4989504;28;20429;-88
2022/09/20 07:33:50;;;;;;;12.75;6.40;;;;;;;11.41;94.13;102276.94;4998093;28;20029;-87
2022/09/20 07:36:16;;;;;;;10.27;5.28;;;;;;;11.49;94.04;102295.53;4995066;28;20032;-88
2022/09/20 07:38:45;;;;;;;9.18;4.50;;;;;;;11.52;93.71;102299.69;4994835;28;20120;-89
2022/09/20 07:41:10;;;;;;;9.95;5.57;;;;;;;11.53;93.61;102281.41;4997459;28;20030;-88
2022/09/20 07:43:36;;;;;;;9.90;4.95;;;;;;;11.56;93.58;102278.59;4987933;28;20053;-88
2022/09/20 07:46:02;;;;;;;11.00;5.50;;;;;;;11.60;93.93;102287.91;4994704;28;20339;-87
2022/09/20 07:48:33;;;;;;;10.98;5.20;;;;;;;11.61;93.46;102273.13;4991584;28;20148;-88
2022/09/20 07:51:04;;;;;;;10.25;4.93;;;;;;;11.77;93.47;102289.44;4995973;28;20022;-88
2022/09/20 07:53:33;;;;;;;8.73;4.13;;;;;;;11.68;92.09;102270.03;4996256;28;20025;-88
2022/09/20 07:56:07;;;;;;;8.25;3.85;;;;;;;11.85;92.74;102281.16;5014982;28;20057;-86
2022/09/20 08:01:31;;;;;;;;;;;;;;;12.03;92.53;102292.97;4998275;28;20156;-86
2022/09/20 08:04:42;;;;;;;;;;;;;;;;;;;;;
2022/09/20 08:08:10;;;;;;;;;;;;;;;;;;;;;
2022/09/20 08:11:12;;;;;;;8.63;3.55;;;;;;;12.17;91.87;102297.31;5003044;28;20045;-88
2022/09/20 08:18:07;;;;;;;8.13;3.10;;;;;;;12.19;91.01;102301.47;4929429;29;20084;-89
2022/09/20 08:24:50;;;;;;;8.60;2.90;;;;;;;11.98;88.75;102261.25;4871237;29;20049;-88
2022/09/20 08:27:43;;;;;;;7.18;2.60;;;;;;;12.34;88.04;102302.25;4853774;29;20076;-87
2022/09/20 08:33:37;;;;;;;9.10;2.50;;;;;;;12.29;86.41;102274.88;4854663;29;20056;-87
2022/09/20 08:36:29;;;;;;;8.88;2.60;;;;;;;12.49;85.37;102308.19;4854255;29;20073;-87
2022/09/20 08:39:16;;;;;;;8.27;2.20;;;;;;;12.25;83.49;102283.81;4853884;29;20037;-87
2022/09/20 08:42:28;;;;;;;7.47;2.63;;;;;;;12.56;84.50;102335.50;4834398;29;20049;-86
2022/09/20 08:45:57;;;;;;;;;;;;;;;;;;;;;
2022/09/20 08:52:03;;;;;;;;;;;;;;;;;;;;;
2022/09/20 08:59:06;;;;;;;10.32;2.60;;;;;;;12.57;83.29;102358.00;4872319;29;20025;-88
2022/09/20 09:02:28;;;;;;;6.45;2.13;;;;;;;12.43;83.24;102334.63;4993436;28;20046;-86
2022/09/20 09:05:43;;;;;;;7.75;2.00;;;;;;;12.54;82.35;102358.19;4981098;28;20041;-88
2022/09/20 09:12:24;;;;;;;12.98;3.20;;;;;;;12.29;81.58;102303.50;5006080;28;20054;-88
2022/09/20 09:15:36;;;;;;;8.68;2.35;;;;;;;12.30;81.54;102307.75;4929215;29;20043;-87
2022/09/20 09:26:21;;;;;;;6.55;1.13;;;;;;;12.45;76.36;102358.81;4921511;29;20416;-87
2022/09/20 09:29:41;;;;;;;9.13;2.35;;;;;;;12.50;78.96;102364.50;4886393;29;20032;-88
2022/09/20 09:33:03;;;;;;;;;;;;;;;;;;;;;
2022/09/20 09:36:30;;;;;;;3.90;1.27;;;;;;;12.22;78.60;102322.09;4875353;29;20063;-88
2022/09/20 09:39:48;;;;;;;5.53;1.30;;;;;;;12.49;77.61;102376.69;4819980;29;20034;-87
2022/09/20 09:43:12;;;;;;;5.15;1.20;;;;;;;12.42;77.79;102369.41;4815767;29;20041;-88
2022/09/20 09:46:25;;;;;;;4.88;1.00;;;;;;;12.28;78.33;102331.28;4796823;29;20034;-88
2022/09/20 09:49:39;;;;;;;3.95;1.10;;;;;;;12.55;77.53;102380.66;4786481;29;20453;-86
2022/09/20 09:53:03;;;;;;;4.93;1.00;;;;;;;12.68;79.01;102371.16;4783438;29;20031;-87
2022/09/20 09:59:50;;;;;;;4.97;1.10;;;;;;;12.55;79.47;102318.22;4780890;30;20042;-87
2022/09/20 10:06:03;;;;;;;6.10;1.30;;;;;;;12.75;79.37;102342.94;4800525;29;20539;-88
2022/09/20 10:09:21;;;;;;;3.70;0.90;;;;;;;12.70;79.04;102332.81;4793451;29;20045;-86
2022/09/20 10:11:57;;;;;;;4.82;1.17;;;;;;;12.84;77.60;102336.25;4800927;29;20070;-87
2022/09/20 10:14:57;;;;;;;4.47;1.10;;;;;;;13.05;79.84;102337.44;4838611;29;20523;-87
2022/09/20 10:17:49;;;;;;;6.72;1.25;;;;;;;13.32;77.46;102368.63;4871304;29;20545;-86
2022/09/20 10:20:52;;;;;;;5.63;1.10;;;;;;;13.46;78.36;102359.84;4908148;29;20503;-86
2022/09/20 10:23:44;;;;;;;4.68;1.05;;;;;;;13.49;77.16;102351.81;4928606;29;20081;-86
2022/09/20 10:26:49;;;;;;;6.32;1.27;;;;;;;13.57;76.92;102349.50;4946547;28;20046;-86
2022/09/20 10:30:04;;;;;;;4.38;1.10;;;;;;;13.42;76.44;102314.06;5000433;28;20029;-87
2022/09/20 10:36:33;;;;;;;5.32;1.45;;;;;;;13.68;73.71;102353.97;4914291;28;20131;-87
2022/09/20 10:39:45;;;;;;;5.70;1.30;;;;;;;13.58;76.40;102314.66;4999143;28;20034;-86
2022/09/20 10:45:51;;;;;;;6.05;1.33;;;;;;;13.72;74.95;102358.88;4936968;29;20086;-87
2022/09/20 10:48:17;;;;;;;4.95;1.25;;;;;;;13.65;73.18;102352.41;4927303;29;20043;-86
2022/09/20 10:50:55;;;;;;;5.65;1.10;;;;;;;13.72;73.44;102353.66;4927546;29;20080;-87
2022/09/20 10:53:42;;;;;;;4.38;1.10;;;;;;;13.74;70.71;102363.97;4937850;29;20043;-87
2022/09/20 10:56:26;;;;;;;6.07;1.13;;;;;;;13.69;69.53;102359.06;4924738;29;20499;-88
2022/09/20 10:59:35;;;;;;;6.60;1.35;;;;;;;13.75;71.34;102374.28;4925294;29;20058;-87
2022/09/20 11:02:19;;;;;;;5.07;1.10;;;;;;;13.77;71.66;102364.59;4922739;29;20110;-89
2022/09/20 11:04:51;;;;;;;4.10;0.85;;;;;;;13.74;69.07;102367.41;4926418;29;20514;-87
2022/09/20 11:07:19;;;;;;;4.65;0.95;;;;;;;13.68;68.52;102367.84;4937577;29;20039;-87
2022/09/20 11:10:03;;;;;;;5.50;1.17;;;;;;;13.63;68.97;102366.50;4939024;29;20027;-87
2022/09/20 11:12:54;;;;;;;4.95;1.02;;;;;;;13.68;70.21;102378.25;4965405;28;20264;-85
2022/09/20 11:15:42;;;;;;;4.68;0.93;;;;;;;13.61;67.81;102366.59;5024737;28;20100;-85
2022/09/20 11:18:40;;;;;;;6.00;1.08;;;;;;;13.74;69.32;102372.63;5008344;28;20033;-88
2022/09/20 11:21:09;;;;;;;;;;;;;;;13.80;70.23;102382.63;4980490;28;20048;-87
2022/09/20 11:23:50;;;;;;;5.07;1.00;;;;;;;13.69;70.21;102390.34;5000214;28;19972;-86
2022/09/20 11:26:38;;;;;;;5.75;1.20;;;;;;;13.63;69.95;102385.56;5001427;28;20259;-86
2022/09/20 11:29:23;;;;;;;5.28;1.00;;;;;;;13.56;69.08;102386.94;5017309;28;20121;-87
2022/09/20 11:31:53;;;;;;;4.32;0.85;;;;;;;13.55;67.95;102387.88;4994314;28;20033;-86
2022/09/20 11:34:30;;;;;;;5.38;0.90;;;;;;;13.56;67.57;102376.50;5007413;28;20453;-88
2022/09/20 11:37:01;;;;;;;4.28;0.80;;;;;;;13.55;67.79;102367.03;5010202;28;20060;-88
2022/09/20 11:39:33;;;;;;;2.92;0.80;;;;;;;13.63;64.61;102367.31;5005837;28;20104;-88
2022/09/20 11:42:04;;;;;;;3.95;0.90;;;;;;;13.64;64.26;102355.94;4993253;28;20091;-87
2022/09/20 11:44:30;;;;;;;4.68;1.00;;;;;;;13.77;66.96;102361.97;5011678;28;20038;-88
2022/09/20 11:47:34;;;;;;;3.83;1.00;;;;;;;13.89;66.95;102364.66;5006258;28;20029;-88
2022/09/20 11:50:25;;;;;;;5.47;1.08;;;;;;;14.01;66.34;102379.44;5014543;28;20065;-87
2022/09/20 11:53:03;;;;;;;3.88;0.70;;;;;;;14.04;64.29;102371.38;4995152;28;20105;-87
2022/09/20 11:55:48;;;;;;;2.37;0.87;;;;;;;14.11;64.19;102363.94;5016834;28;20034;-86
2022/09/20 11:58:22;;;;;;;4.28;1.00;;;;;;;14.13;63.41;102362.91;5020637;28;20108;-87
2022/09/20 12:00:54;;;;;;;4.18;1.05;;;;;;;14.19;64.33;102362.47;5006859;28;20029;-87
2022/09/20 12:03:32;;;;;;;3.90;1.10;;;;;;;14.39;66.57;102362.78;4994482;28;20035;-87
2022/09/20 12:06:04;;;;;;;6.00;0.93;;;;;;;14.38;63.79;102376.78;5027942;28;20026;-87
2022/09/20 12:08:34;;;;;;;4.95;1.15;;;;;;;14.35;63.78;102365.63;5021572;28;20018;-86
2022/09/20 12:11:06;;;;;;;5.97;1.25;;;;;;;14.40;63.08;102367.06;5016540;28;20519;-87
2022/09/20 12:13:37;;;;;;;4.95;1.10;;;;;;;14.52;64.93;102360.97;4994472;28;20049;-87
2022/09/20 12:16:03;;;;;;;7.53;1.35;;;;;;;14.59;65.23;102372.63;4991976;28;20030;-86
2022/09/20 12:18:34;;;;;;;4.78;0.90;;;;;;;14.45;61.93;102357.09;5022334;28;20029;-87
2022/09/20 12:21:15;;;;;;;5.93;1.20;;;;;;;14.44;62.30;102358.06;5025861;28;20021;-87
2022/09/20 12:24:09;;;;;;;4.50;0.90;;;;;;;14.48;63.96;102349.09;5006067;28;20116;-87
2022/09/20 12:26:40;;;;;;;5.57;1.08;;;;;;;14.55;61.37;102368.56;5008498;28;20061;-86
2022/09/20 12:29:23;;;;;;;4.82;1.05;;;;;;;14.65;63.90;102364.34;5019091;28;20029;-87
2022/09/20 12:31:58;;;;;;;6.82;1.20;;;;;;;14.64;63.08;102347.00;5016724;28;20042;-88
2022/09/20 12:34:24;;;;;;;6.40;1.20;;;;;;;14.70;62.48;102357.00;5000907;28;20029;-87
2022/09/20 12:36:51;;;;;;;6.75;1.42;;;;;;;14.64;60.80;102352.22;5003863;28;20038;-87
2022/09/20 12:45:45;;;;;;;5.72;1.23;;;;;;;14.62;62.58;102320.16;4939973;28;20079;-86
2022/09/20 12:48:46;;;;;;;4.22;1.00;;;;;;;14.73;64.04;102333.25;4925885;29;20494;-87
2022/09/20 12:54:18;;;;;;;5.18;1.10;;;;;;;14.47;61.78;102303.03;4946643;28;20069;-84
2022/09/20 13:04:12;;;;;;;6.68;1.13;;;;;;;14.84;61.95;102333.25;4915707;29;20038;-87
2022/09/20 13:07:01;;;;;;;6.13;1.10;;;;;;;14.61;58.62;102315.88;4938632;28;20054;-85
2022/09/20 13:13:40;;;;;;;5.18;1.10;;;;;;;14.92;60.31;102356.22;4863043;29;20064;-87
2022/09/20 13:16:38;;;;;;;6.80;1.45;;;;;;;14.70;61.15;102312.59;4885669;29;20045;-85
2022/09/20 13:23:05;;;;;;;6.22;1.20;;;;;;;14.74;60.95;102300.97;4895035;29;20044;-87
2022/09/20 13:25:54;;;;;;;5.22;1.33;;;;;;;14.86;62.89;102300.03;4871455;29;20177;-86
2022/09/20 13:29:14;;;;;;;;;;;;;;;;;;;;;
2022/09/20 13:35:45;;;;;;;5.72;0.82;;;;;;;15.43;62.69;102344.50;4861956;29;20084;-88
2022/09/20 13:38:40;;;;;;;7.28;1.23;;;;;;;15.06;61.22;102295.06;4859242;29;20091;-87
2022/09/20 13:42:13;;;;;;;3.67;1.00;;;;;;;15.38;61.86;102347.47;4855441;29;20117;-86
2022/09/20 13:45:02;;;;;;;4.43;0.88;;;;;;;14.96;60.12;102304.53;4826937;29;20108;-88
2022/09/20 13:47:50;;;;;;;;;;;;;;;;;;;;;
2022/09/20 13:51:09;;;;;;;5.68;1.10;;;;;;;15.18;62.00;102356.84;4813215;29;19919;-85
2022/09/20 13:54:40;;;;;;;6.00;1.20;;;;;;;14.96;62.53;102333.28;4797036;29;20179;-87
2022/09/20 14:01:19;;;;;;;6.72;1.20;;;;;;;15.20;63.52;102344.50;4797179;29;20086;-86
2022/09/20 14:04:43;;;;;;;4.68;1.10;;;;;;;14.87;63.12;102286.03;4882927;29;20477;-86
2022/09/20 14:15:02;;;;;;;5.70;1.13;;;;;;;15.07;61.66;102325.47;4891320;29;20049;-87
2022/09/20 14:17:57;;;;;;;5.55;0.95;;;;;;;15.13;60.77;102348.50;4907207;29;20048;-87
2022/09/20 14:24:23;;;;;;;5.90;1.25;;;;;;;15.10;60.97;102354.00;4903851;29;20051;-86
2022/09/20 14:27:50;;;;;;;;;;;;;;;;;;;;;
2022/09/20 14:30:55;;;;;;;5.07;0.90;;;;;;;14.86;61.28;102326.16;4866674;29;20577;-87
2022/09/20 14:37:09;;;;;;;4.32;1.20;;;;;;;14.76;62.07;102330.41;4862556;29;20037;-85
2022/09/20 14:40:16;;;;;;;7.20;1.30;;;;;;;14.86;62.14;102331.41;4870862;29;20037;-87
2022/09/20 14:43:35;;;;;;;5.05;1.10;;;;;;;14.70;61.81;102315.22;4868233;29;20049;-86
2022/09/20 14:46:41;;;;;;;8.30;1.40;;;;;;;14.48;60.50;102310.75;4853453;29;20486;-86
2022/09/20 14:49:45;;;;;;;5.57;1.33;;;;;;;14.77;62.55;102352.97;4872063;29;20048;-86
2022/09/20 14:53:23;;;;;;;6.85;1.25;;;;;;;14.54;62.56;102319.91;4892857;29;20108;-86
2022/09/20 15:00:11;;;;;;;6.03;1.27;;;;;;;14.70;64.01;102357.00;4946970;28;20035;-88
2022/09/20 15:03:15;;;;;;;5.97;1.10;;;;;;;14.52;62.30;102340.09;4927906;29;20043;-85
2022/09/20 15:06:30;;;;;;;;;;;;;;;;;;;;;
2022/09/20 15:13:05;;;;;;;6.57;1.30;;;;;;;14.70;63.97;102346.56;4927071;29;20408;-86
2022/09/20 15:16:11;;;;;;;;;;;;;;;;;;;;;
2022/09/20 15:18:44;;;;;;;6.28;1.50;;;;;;;14.52;63.27;102332.25;4887857;29;20387;-87
2022/09/20 15:21:14;;;;;;;7.10;1.38;;;;;;;14.53;63.77;102313.03;4874056;29;20324;-86
2022/09/20 15:24:23;;;;;;;6.45;1.38;;;;;;;14.40;64.34;102297.41;4874764;29;20041;-86